createdAt,value
2023-01-03T00:00:12.269Z,11.50
2023-01-03T00:02:39.275Z,11.50
2023-01-03T00:05:09.156Z,11.50
2023-01-03T00:07:37.427Z,11.50
2023-01-03T00:10:09.285Z,11.40
2023-01-03T00:12:36.971Z,11.40
2023-01-03T00:15:05.141Z,11.40
2023-01-03T00:17:32.055Z,11.30
2023-01-03T00:19:59.085Z,11.40
2023-01-03T00:22:30.886Z,11.40
2023-01-03T00:24:57.985Z,11.30
2023-01-03T00:27:25.051Z,11.30
2023-01-03T00:29:51.958Z,11.30
2023-01-03T00:32:20.406Z,11.30
2023-01-03T00:34:47.414Z,11.30
2023-01-03T00:37:16.313Z,11.30
2023-01-03T00:39:45.744Z,11.30
2023-01-03T00:42:15.347Z,11.30
2023-01-03T00:44:42.073Z,11.30
2023-01-03T00:47:09.059Z,11.30
2023-01-03T00:49:36.050Z,11.30
2023-01-03T00:52:02.802Z,11.30
2023-01-03T00:54:29.549Z,11.20
2023-01-03T00:56:57.445Z,11.20
2023-01-03T00:59:24.606Z,11.20
2023-01-03T01:01:55.899Z,11.20
2023-01-03T01:04:25.410Z,11.10
2023-01-03T01:06:59.650Z,11.10
2023-01-03T01:09:32.951Z,11.10
2023-01-03T01:11:59.910Z,11.10
2023-01-03T01:14:29.376Z,11.00
2023-01-03T01:16:58.829Z,11.00
2023-01-03T01:19:37.314Z,11.00
2023-01-03T01:22:04.061Z,11.00
2023-01-03T01:24:30.998Z,11.00
2023-01-03T01:26:57.934Z,11.00
2023-01-03T01:29:24.802Z,11.00
2023-01-03T01:31:52.051Z,11.00
2023-01-03T01:34:19.009Z,11.00
2023-01-03T01:36:47.596Z,11.00
2023-01-03T01:39:20.195Z,11.00
2023-01-03T01:42:07.938Z,11.00
2023-01-03T01:44:56.944Z,11.10
2023-01-03T01:47:31.538Z,11.10
2023-01-03T01:50:13.757Z,11.10
2023-01-03T01:52:46.180Z,11.10
2023-01-03T01:55:16.197Z,11.00
2023-01-03T01:57:44.117Z,11.00
2023-01-03T02:00:11.955Z,10.90
2023-01-03T02:02:40.177Z,10.90
2023-01-03T02:05:11.401Z,10.80
2023-01-03T02:07:39.007Z,10.80
2023-01-03T02:10:08.088Z,10.80
2023-01-03T02:12:56.393Z,10.80
2023-01-03T02:15:54.082Z,10.70
2023-01-03T02:18:52.105Z,10.70
2023-01-03T02:21:37.996Z,10.70
2023-01-03T02:24:26.433Z,10.70
2023-01-03T02:27:19.026Z,10.70
2023-01-03T02:30:36.433Z,10.70
2023-01-03T02:33:45.849Z,10.70
2023-01-03T02:36:23.546Z,10.60
2023-01-03T02:39:13.457Z,10.60
2023-01-03T02:42:14.320Z,10.60
2023-01-03T02:44:50.846Z,10.60
2023-01-03T02:47:22.303Z,10.60
2023-01-03T02:49:52.978Z,10.60
2023-01-03T02:52:28.640Z,10.60
2023-01-03T02:55:10.838Z,10.70
2023-01-03T02:57:51.472Z,10.70
2023-01-03T03:00:32.757Z,10.80
2023-01-03T03:03:09.756Z,10.80
2023-01-03T03:05:45.761Z,10.80
2023-01-03T03:08:13.905Z,10.80
2023-01-03T03:11:00.448Z,10.80
2023-01-03T03:13:42.470Z,10.80
2023-01-03T03:16:49.964Z,10.80
2023-01-03T03:19:43.387Z,10.80
2023-01-03T03:22:41.462Z,10.80
2023-01-03T03:25:14.853Z,10.90
2023-01-03T03:28:02.130Z,10.90
2023-01-03T03:30:34.810Z,10.90
2023-01-03T03:33:05.877Z,10.90
2023-01-03T03:35:50.718Z,10.90
2023-01-03T03:38:22.860Z,10.90
2023-01-03T03:41:21.253Z,11.00
2023-01-03T03:44:34.713Z,11.00
2023-01-03T03:47:13.809Z,11.00
2023-01-03T03:49:45.301Z,11.00
2023-01-03T03:52:27.120Z,11.00
2023-01-03T03:55:06.227Z,11.00
2023-01-03T03:57:38.814Z,11.00
2023-01-03T04:00:21.667Z,11.00
2023-01-03T04:02:50.094Z,11.00
2023-01-03T04:05:23.241Z,11.10
2023-01-03T04:07:51.403Z,11.10
2023-01-03T04:10:20.864Z,11.10
2023-01-03T04:12:48.576Z,11.10
2023-01-03T04:15:15.894Z,11.10
2023-01-03T04:17:43.220Z,11.10
2023-01-03T04:20:11.702Z,11.10
2023-01-03T04:22:38.646Z,11.10
2023-01-03T04:25:05.992Z,11.00
2023-01-03T04:27:33.362Z,11.00
2023-01-03T04:30:00.269Z,11.00
2023-01-03T04:32:27.020Z,10.90
2023-01-03T04:34:53.849Z,10.90
2023-01-03T04:37:21.314Z,10.90
2023-01-03T04:39:48.183Z,10.90
2023-01-03T04:42:34.028Z,10.90
2023-01-03T04:45:00.730Z,10.80
2023-01-03T04:47:27.563Z,10.80
2023-01-03T04:49:54.381Z,10.80
2023-01-03T04:52:21.188Z,10.80
2023-01-03T04:54:48.047Z,10.70
2023-01-03T04:57:15.052Z,10.60
2023-01-03T04:59:42.028Z,10.60
2023-01-03T05:02:09.477Z,10.60
2023-01-03T05:04:36.360Z,10.60
2023-01-03T05:07:05.013Z,10.50
2023-01-03T05:09:31.897Z,10.50
2023-01-03T05:11:59.095Z,10.50
2023-01-03T05:14:25.908Z,10.50
2023-01-03T05:16:52.777Z,10.50
2023-01-03T05:19:19.803Z,10.40
2023-01-03T05:22:05.040Z,10.40
2023-01-03T05:24:50.422Z,10.30
2023-01-03T05:27:18.309Z,10.30
2023-01-03T05:29:47.785Z,10.30
2023-01-03T05:32:14.608Z,10.30
2023-01-03T05:34:42.057Z,10.20
2023-01-03T05:37:09.622Z,10.20
2023-01-03T05:39:37.418Z,10.20
2023-01-03T05:42:04.824Z,10.10
2023-01-03T05:44:33.705Z,10.10
2023-01-03T05:47:04.467Z,10.00
2023-01-03T05:49:31.264Z,10.00
2023-01-03T05:51:57.959Z,9.90
2023-01-03T05:54:26.271Z,9.90
2023-01-03T05:56:53.434Z,9.80
2023-01-03T05:59:21.200Z,9.70
2023-01-03T06:01:48.719Z,9.70
2023-01-03T06:04:15.706Z,9.70
2023-01-03T06:06:42.732Z,9.80
2023-01-03T06:09:09.552Z,9.80
2023-01-03T06:11:36.421Z,9.70
2023-01-03T06:14:04.599Z,9.70
2023-01-03T06:16:52.812Z,9.70
2023-01-03T06:19:21.311Z,9.70
2023-01-03T06:21:48.037Z,9.70
2023-01-03T06:24:14.811Z,9.70
2023-01-03T06:26:41.517Z,9.70
2023-01-03T06:29:08.475Z,9.70
2023-01-03T06:31:35.757Z,9.70
2023-01-03T06:34:05.037Z,9.70
2023-01-03T06:36:34.731Z,9.70
2023-01-03T06:39:01.704Z,9.70
2023-01-03T06:41:28.557Z,9.70
2023-01-03T06:43:55.537Z,9.70
2023-01-03T06:46:40.956Z,9.70
2023-01-03T06:49:33.407Z,9.60
2023-01-03T06:52:20.148Z,9.70
2023-01-03T06:54:48.229Z,9.70
2023-01-03T06:57:27.015Z,9.60
2023-01-03T06:59:54.788Z,9.60
2023-01-03T07:02:21.802Z,9.50
2023-01-03T07:04:48.893Z,9.40
2023-01-03T07:07:15.744Z,9.40
2023-01-03T07:09:42.515Z,9.40
2023-01-03T07:12:28.017Z,9.30
2023-01-03T07:14:54.776Z,9.20
2023-01-03T07:17:21.569Z,9.20
2023-01-03T07:19:50.884Z,9.20
2023-01-03T07:22:17.627Z,9.20
2023-01-03T07:24:44.753Z,9.20
2023-01-03T07:27:11.568Z,9.20
2023-01-03T07:29:38.341Z,9.10
2023-01-03T07:32:06.738Z,9.10
2023-01-03T07:34:33.535Z,9.20
2023-01-03T07:37:00.272Z,9.10
2023-01-03T07:39:27.055Z,9.10
2023-01-03T07:42:12.684Z,9.10
2023-01-03T07:44:39.584Z,9.10
2023-01-03T07:47:06.444Z,9.10
2023-01-03T07:49:33.270Z,9.10
2023-01-03T07:52:00.130Z,9.10
2023-01-03T07:54:26.870Z,9.10
2023-01-03T07:56:53.661Z,9.10
2023-01-03T07:59:20.422Z,9.20
2023-01-03T08:01:47.449Z,9.30
2023-01-03T08:04:14.279Z,9.30
2023-01-03T08:06:42.086Z,9.30
2023-01-03T08:09:27.886Z,9.40
2023-01-03T08:12:13.452Z,9.30
2023-01-03T08:14:40.303Z,9.30
2023-01-03T08:17:08.563Z,9.30
2023-01-03T08:19:39.016Z,9.20
2023-01-03T08:22:10.352Z,9.20
2023-01-03T08:24:37.884Z,9.20
2023-01-03T08:27:05.328Z,9.20
2023-01-03T08:29:32.142Z,9.20
2023-01-03T08:32:02.916Z,9.30
2023-01-03T08:34:33.766Z,9.30
2023-01-03T08:37:03.916Z,9.30
2023-01-03T08:39:48.595Z,9.30
2023-01-03T08:42:17.445Z,9.40
2023-01-03T08:44:45.286Z,9.50
2023-01-03T08:47:13.556Z,9.60
2023-01-03T08:49:40.873Z,9.70
2023-01-03T08:52:08.630Z,9.80
2023-01-03T08:54:35.738Z,10.00
2023-01-03T08:57:02.465Z,10.10
2023-01-03T08:59:32.420Z,10.20
2023-01-03T09:02:01.163Z,10.40
2023-01-03T09:04:28.562Z,10.40
2023-01-03T09:06:55.665Z,10.50
2023-01-03T09:09:22.581Z,10.60
2023-01-03T09:11:49.763Z,10.60
2023-01-03T09:14:16.484Z,10.70
2023-01-03T09:16:49.081Z,10.70
2023-01-03T09:19:17.171Z,10.70
2023-01-03T09:21:43.943Z,10.80
2023-01-03T09:24:10.713Z,10.90
2023-01-03T09:26:37.897Z,10.90
2023-01-03T09:29:04.747Z,11.00
2023-01-03T09:31:35.338Z,11.00
2023-01-03T09:34:04.669Z,11.10
2023-01-03T09:36:32.717Z,11.10
2023-01-03T09:38:59.416Z,11.10
2023-01-03T09:41:28.898Z,11.20
2023-01-03T09:44:07.000Z,11.20
2023-01-03T09:46:37.632Z,11.30
2023-01-03T09:49:07.189Z,11.30
2023-01-03T09:52:00.048Z,11.30
2023-01-03T09:54:50.875Z,11.40
2023-01-03T09:57:50.777Z,11.40
2023-01-03T10:00:36.629Z,11.40
2023-01-03T10:03:51.067Z,11.40
2023-01-03T10:06:55.732Z,11.50
2023-01-03T10:09:43.975Z,11.50
2023-01-03T10:12:31.969Z,11.50
2023-01-03T10:15:18.194Z,11.50
2023-01-03T10:18:05.547Z,11.60
2023-01-03T10:20:36.049Z,11.60
2023-01-03T10:23:07.265Z,11.70
2023-01-03T10:25:40.063Z,11.70
2023-01-03T10:28:24.087Z,11.70
2023-01-03T10:31:26.994Z,11.80
2023-01-03T10:33:54.230Z,11.90
2023-01-03T10:36:22.335Z,12.00
2023-01-03T10:39:02.697Z,12.00
2023-01-03T10:41:48.993Z,12.00
2023-01-03T10:44:31.363Z,12.10
2023-01-03T10:47:07.803Z,12.20
2023-01-03T10:49:34.675Z,12.20
2023-01-03T10:52:12.219Z,12.20
2023-01-03T10:55:15.791Z,12.30
2023-01-03T10:57:48.459Z,12.30
2023-01-03T11:00:26.601Z,12.30
2023-01-03T11:02:55.693Z,12.30
2023-01-03T11:05:25.763Z,12.40
2023-01-03T11:07:58.243Z,12.40
2023-01-03T11:10:32.945Z,12.40
2023-01-03T11:12:59.757Z,12.50
2023-01-03T11:15:38.010Z,12.50
2023-01-03T11:18:17.902Z,12.50
2023-01-03T11:21:09.160Z,12.60
2023-01-03T11:24:13.491Z,12.60
2023-01-03T11:26:54.577Z,12.70
2023-01-03T11:29:21.361Z,12.60
2023-01-03T11:31:56.665Z,12.60
2023-01-03T11:35:20.644Z,12.60
2023-01-03T11:37:43.648Z,12.60
2023-01-03T11:40:40.889Z,12.60
2023-01-03T11:43:40.955Z,12.70
2023-01-03T11:46:25.555Z,12.70
2023-01-03T11:52:25.236Z,12.60
2023-01-03T11:55:16.910Z,12.60
2023-01-03T11:58:02.575Z,12.60
2023-01-03T12:01:03.675Z,12.60
2023-01-03T12:03:52.366Z,12.60
2023-01-03T12:06:28.771Z,12.70
2023-01-03T12:09:21.143Z,12.70
2023-01-03T12:12:09.616Z,12.70
2023-01-03T12:15:00.679Z,12.70
2023-01-03T12:17:47.225Z,12.70
2023-01-03T12:20:22.799Z,12.70
2023-01-03T12:23:19.437Z,12.70
2023-01-03T12:25:52.836Z,12.60
2023-01-03T12:28:28.392Z,12.50
2023-01-03T12:31:02.356Z,12.40
2023-01-03T12:33:47.452Z,12.40
2023-01-03T12:36:35.426Z,12.40
2023-01-03T12:39:17.229Z,12.40
2023-01-03T12:41:54.365Z,12.40
2023-01-03T12:44:37.563Z,12.40
2023-01-03T12:47:09.123Z,12.40
2023-01-03T12:49:43.560Z,12.30
2023-01-03T12:52:17.129Z,12.30
2023-01-03T12:54:52.429Z,12.30
2023-01-03T12:57:47.479Z,12.30
2023-01-03T13:00:31.038Z,12.30
2023-01-03T13:03:17.544Z,12.30
2023-01-03T13:05:50.384Z,12.30
2023-01-03T13:08:23.018Z,12.30
2023-01-03T13:10:55.065Z,12.30
2023-01-03T13:13:22.783Z,12.30
2023-01-03T13:15:49.703Z,12.30
2023-01-03T13:18:22.176Z,12.30
2023-01-03T13:20:51.027Z,12.30
2023-01-03T13:23:31.927Z,12.30
2023-01-03T13:26:09.007Z,12.30
2023-01-03T13:28:37.279Z,12.30
2023-01-03T13:31:19.187Z,12.40
2023-01-03T13:33:52.088Z,12.30
2023-01-03T13:36:19.223Z,12.30
2023-01-03T13:38:46.484Z,12.30
2023-01-03T13:41:35.266Z,12.30
2023-01-03T13:44:22.763Z,12.20
2023-01-03T13:46:52.780Z,12.30
2023-01-03T13:49:26.460Z,12.30
2023-01-03T13:51:58.014Z,12.30
2023-01-03T13:54:35.654Z,12.30
2023-01-03T13:57:06.943Z,12.30
2023-01-03T13:59:44.755Z,12.40
2023-01-03T14:02:35.657Z,12.40
2023-01-03T14:05:26.831Z,12.40
2023-01-03T14:08:24.785Z,12.50
2023-01-03T14:11:25.680Z,12.60
2023-01-03T14:14:04.603Z,12.60
2023-01-03T14:17:01.056Z,12.60
2023-01-03T14:19:36.650Z,12.60
2023-01-03T14:22:34.891Z,12.60
2023-01-03T14:25:03.251Z,12.60
2023-01-03T14:27:37.773Z,12.60
2023-01-03T14:30:30.961Z,12.50
2023-01-03T14:32:58.747Z,12.50
2023-01-03T14:36:06.846Z,12.50
2023-01-03T14:38:36.467Z,12.40
2023-01-03T14:41:04.323Z,12.30
2023-01-03T14:43:33.471Z,12.20
2023-01-03T14:46:12.511Z,12.20
2023-01-03T14:48:39.465Z,12.10
2023-01-03T14:51:07.334Z,12.20
2023-01-03T14:53:35.179Z,12.10
2023-01-03T14:56:02.960Z,12.10
2023-01-03T14:58:32.352Z,12.00
2023-01-03T15:01:02.429Z,12.00
2023-01-03T15:03:34.544Z,11.90
2023-01-03T15:06:01.792Z,11.90
2023-01-03T15:08:31.963Z,11.90
2023-01-03T15:11:04.229Z,11.90
2023-01-03T15:13:39.542Z,11.80
2023-01-03T15:16:19.209Z,11.80
2023-01-03T15:18:47.160Z,11.80
2023-01-03T15:21:21.829Z,11.80
2023-01-03T15:23:50.153Z,11.80
2023-01-03T15:26:24.402Z,11.80
2023-01-03T15:29:09.539Z,11.80
2023-01-03T15:31:45.690Z,11.80
2023-01-03T15:34:19.832Z,11.70
2023-01-03T15:36:55.493Z,11.70
2023-01-03T15:39:26.279Z,11.70
2023-01-03T15:42:43.433Z,11.60
2023-01-03T15:45:19.693Z,11.60
2023-01-03T15:47:47.632Z,11.70
2023-01-03T15:50:17.495Z,11.70
2023-01-03T15:52:44.725Z,11.70
2023-01-03T15:55:15.812Z,11.60
2023-01-03T15:57:50.281Z,11.60
2023-01-03T16:00:22.666Z,11.60
2023-01-03T16:02:50.346Z,11.60
2023-01-03T16:05:22.167Z,11.60
2023-01-03T16:07:49.628Z,11.60
2023-01-03T16:10:16.458Z,11.60
2023-01-03T16:12:43.684Z,11.60
2023-01-03T16:15:22.620Z,11.50
2023-01-03T16:17:51.002Z,11.40
2023-01-03T16:20:18.991Z,11.30
2023-01-03T16:23:00.407Z,11.20
2023-01-03T16:25:32.176Z,11.20
2023-01-03T16:28:00.471Z,11.10
2023-01-03T16:30:27.304Z,11.10
2023-01-03T16:32:54.106Z,11.00
2023-01-03T16:35:22.518Z,10.90
2023-01-03T16:37:49.374Z,10.90
2023-01-03T16:40:19.440Z,10.80
2023-01-03T16:42:46.584Z,10.70
2023-01-03T16:45:13.803Z,10.60
2023-01-03T16:47:42.599Z,10.70
2023-01-03T16:50:19.617Z,10.60
2023-01-03T16:52:56.520Z,10.50
2023-01-03T16:55:32.923Z,10.50
2023-01-03T16:58:00.490Z,10.40
2023-01-03T17:00:35.064Z,10.40
2023-01-03T17:03:03.397Z,10.40
2023-01-03T17:05:36.310Z,10.30
2023-01-03T17:08:09.705Z,10.30
2023-01-03T17:10:39.255Z,10.20
2023-01-03T17:13:20.845Z,10.20
2023-01-03T17:15:47.772Z,10.20
2023-01-03T17:18:20.454Z,10.20
2023-01-03T17:20:52.911Z,10.20
2023-01-03T17:23:19.891Z,10.10
2023-01-03T17:25:46.904Z,10.20
2023-01-03T17:28:13.754Z,10.20
2023-01-03T17:30:40.672Z,10.10
2023-01-03T17:33:12.413Z,10.10
2023-01-03T17:35:39.353Z,10.10
2023-01-03T17:38:26.702Z,10.10
2023-01-03T17:40:57.637Z,10.10
2023-01-03T17:43:25.473Z,10.00
2023-01-03T17:46:20.732Z,9.90
2023-01-03T17:49:08.556Z,9.90
2023-01-03T17:51:35.395Z,9.90
2023-01-03T17:54:04.301Z,9.90
2023-01-03T17:56:33.382Z,10.00
2023-01-03T17:59:01.233Z,10.00
2023-01-03T18:01:28.021Z,10.10
2023-01-03T18:03:54.934Z,10.10
2023-01-03T18:06:24.987Z,10.10
2023-01-03T18:08:53.000Z,10.00
2023-01-03T18:11:22.741Z,10.00
2023-01-03T18:13:51.118Z,10.00
2023-01-03T18:16:21.604Z,10.00
2023-01-03T18:18:48.988Z,10.00
2023-01-03T18:21:28.047Z,10.00
2023-01-03T18:24:03.586Z,10.00
2023-01-03T18:26:35.916Z,10.00
2023-01-03T18:29:05.340Z,10.00
2023-01-03T18:31:34.936Z,10.00
2023-01-03T18:34:04.630Z,10.00
2023-01-03T18:36:47.098Z,10.00
2023-01-03T18:39:28.430Z,10.00
2023-01-03T18:42:16.456Z,10.00
2023-01-03T18:44:46.067Z,10.00
2023-01-03T18:47:17.107Z,10.00
2023-01-03T18:49:44.014Z,10.00
2023-01-03T18:52:37.635Z,10.00
2023-01-03T18:55:06.071Z,10.10
2023-01-03T18:57:34.471Z,10.10
2023-01-03T19:00:28.253Z,10.10
2023-01-03T19:02:55.406Z,10.00
2023-01-03T19:05:23.679Z,10.00
2023-01-03T19:07:52.823Z,10.00
2023-01-03T19:10:25.533Z,10.00
2023-01-03T19:12:55.158Z,10.00
2023-01-03T19:15:29.267Z,10.00
2023-01-03T19:17:56.313Z,10.10
2023-01-03T19:20:27.023Z,10.00
2023-01-03T19:22:55.213Z,10.00
2023-01-03T19:25:27.967Z,10.10
2023-01-03T19:27:57.431Z,10.00
2023-01-03T19:30:38.237Z,10.00
2023-01-03T19:33:11.398Z,10.00
2023-01-03T19:35:38.131Z,10.00
2023-01-03T19:38:06.604Z,10.00
2023-01-03T19:40:36.282Z,9.90
2023-01-03T19:43:04.083Z,9.90
2023-01-03T19:45:34.889Z,9.90
2023-01-03T19:48:15.999Z,9.80
2023-01-03T19:50:46.412Z,9.80
2023-01-03T19:53:14.348Z,9.80
2023-01-03T19:55:44.107Z,9.80
2023-01-03T19:58:14.077Z,9.90
2023-01-03T20:00:40.800Z,9.90
2023-01-03T20:03:21.752Z,9.90
2023-01-03T20:05:48.714Z,9.90
2023-01-03T20:08:15.391Z,9.80
2023-01-03T20:10:43.953Z,9.90
2023-01-03T20:13:23.337Z,9.90
2023-01-03T20:15:52.653Z,9.90
2023-01-03T20:18:31.033Z,9.90
2023-01-03T20:21:06.106Z,9.90
2023-01-03T20:23:40.354Z,10.00
2023-01-03T20:26:07.229Z,10.00
2023-01-03T20:28:33.980Z,10.00
2023-01-03T20:31:01.988Z,10.00
2023-01-03T20:33:29.034Z,10.00
2023-01-03T20:36:12.655Z,10.00
2023-01-03T20:38:48.107Z,10.10
2023-01-03T20:41:16.883Z,10.00
2023-01-03T20:43:45.641Z,10.00
2023-01-03T20:46:17.928Z,10.00
2023-01-03T20:48:47.004Z,10.10
2023-01-03T20:51:14.068Z,10.00
2023-01-03T20:53:43.058Z,10.00
2023-01-03T20:56:14.756Z,10.00
2023-01-03T20:58:41.466Z,10.00
2023-01-03T21:01:08.934Z,10.00
2023-01-03T21:03:39.795Z,10.00
2023-01-03T21:06:27.114Z,9.90
2023-01-03T21:08:58.643Z,9.90
2023-01-03T21:11:35.830Z,10.00
2023-01-03T21:14:03.619Z,9.90
2023-01-03T21:16:44.544Z,10.00
2023-01-03T21:19:19.279Z,10.00
2023-01-03T21:21:48.405Z,9.90
2023-01-03T21:24:17.227Z,9.90
2023-01-03T21:26:44.251Z,9.90
2023-01-03T21:29:11.402Z,10.00
2023-01-03T21:31:39.776Z,9.90
2023-01-03T21:34:13.057Z,9.90
2023-01-03T21:36:39.753Z,10.00
2023-01-03T21:39:06.537Z,10.00
2023-01-03T21:41:35.295Z,10.00
2023-01-03T21:44:04.402Z,10.00
2023-01-03T21:46:31.360Z,9.90
2023-01-03T21:48:58.599Z,10.00
2023-01-03T21:51:35.531Z,9.90
2023-01-03T21:54:07.093Z,9.90
2023-01-03T21:56:37.623Z,9.90
2023-01-03T21:59:04.499Z,9.90
2023-01-03T22:01:51.392Z,9.90
2023-01-03T22:04:18.373Z,9.90
2023-01-03T22:06:46.848Z,9.90
2023-01-03T22:09:35.106Z,9.90
2023-01-03T22:12:01.834Z,9.80
2023-01-03T22:14:29.726Z,9.80
2023-01-03T22:16:56.520Z,9.70
2023-01-03T22:19:24.539Z,9.70
2023-01-03T22:21:51.463Z,9.70
2023-01-03T22:24:19.195Z,9.70
2023-01-03T22:26:50.693Z,9.70
2023-01-03T22:29:17.479Z,9.70
2023-01-03T22:31:46.574Z,9.70
2023-01-03T22:34:13.344Z,9.70
2023-01-03T22:36:41.187Z,9.70
2023-01-03T22:39:08.002Z,9.70
2023-01-03T22:41:34.755Z,9.70
2023-01-03T22:44:02.625Z,9.70
2023-01-03T22:46:29.400Z,9.70
2023-01-03T22:48:56.454Z,9.70
2023-01-03T22:51:23.514Z,9.70
2023-01-03T22:53:51.439Z,9.70
2023-01-03T22:56:21.205Z,9.70
2023-01-03T22:58:47.882Z,9.70
2023-01-03T23:01:17.808Z,9.70
2023-01-03T23:03:46.292Z,9.70
2023-01-03T23:06:16.157Z,9.70
2023-01-03T23:08:43.407Z,9.70
2023-01-03T23:11:35.806Z,9.70
2023-01-03T23:14:05.119Z,9.70
2023-01-03T23:16:32.457Z,9.70
2023-01-03T23:19:02.098Z,9.70
2023-01-03T23:21:29.210Z,9.70
2023-01-03T23:23:56.037Z,9.80
2023-01-03T23:26:23.435Z,9.80
2023-01-03T23:28:53.465Z,9.80
2023-01-03T23:31:20.211Z,9.80
2023-01-03T23:33:48.151Z,9.80
2023-01-03T23:36:17.275Z,9.80
2023-01-03T23:38:45.244Z,9.80
2023-01-03T23:41:13.353Z,9.80
2023-01-03T23:43:40.319Z,9.90
2023-01-03T23:46:07.293Z,9.90
2023-01-03T23:48:34.209Z,10.00
2023-01-03T23:51:07.667Z,10.00
2023-01-03T23:53:39.191Z,10.00
2023-01-03T23:56:07.925Z,10.00
2023-01-03T23:58:35.416Z,10.00
